PHOENIX SKY HARBOR INTL

KPHX (PHX)
Phoenix, Arizona
Towered

Vatsim Metar:
KPHX 131951Z VRB06KT 10SM FEW250 29/M01 A2974 RMK AO2 SLP053 T02941011 $